Time,TemperatureF,DewpointF,PressureIn,WindDirection,WindDirectionDegrees,WindSpeedMPH,WindSpeedGustMPH,Humidity,HourlyPrecipIn,Conditions,Clouds,dailyrainin,SoftwareType,DateUTC
2013-01-01 08:53:00,10.7,6.6,30.47,North,0,1.0,-999.0,83,0.00,,,0.00,Wunderground v.1.15,2013-01-01 14:53:00,
2013-01-01 08:58:00,10.7,6.6,30.47,North,0,1.0,-999.0,83,0.00,,,0.00,Wunderground v.1.15,2013-01-01 14:58:00,
2013-01-01 09:03:00,10.7,6.6,30.47,North,0,1.0,-999.0,83,0.00,,,0.00,Wunderground v.1.15,2013-01-01 15:03:00,
2013-01-01 09:08:00,10.7,6.6,30.47,North,0,1.0,-999.0,83,0.00,,,0.00,Wunderground v.1.15,2013-01-01 15:08:00,
2013-01-01 09:13:00,10.7,6.6,30.47,North,0,1.0,-999.0,83,0.00,,,0.00,Wunderground v.1.15,2013-01-01 15:13:00,
2013-01-01 09:18:00,12.0,8.1,30.47,North,0,1.0,-999.0,84,0.00,,,0.00,Wunderground v.1.15,2013-01-01 15:18:00,
2013-01-01 09:23:00,12.0,8.1,30.47,North,0,1.0,-999.0,84,0.00,,,0.00,Wunderground v.1.15,2013-01-01 15:23:00,
2013-01-01 09:28:00,12.0,8.1,30.47,North,0,1.0,-999.0,84,0.00,,,0.00,Wunderground v.1.15,2013-01-01 15:28:00,
2013-01-01 09:33:00,12.0,8.1,30.47,North,0,1.0,-999.0,84,0.00,,,0.00,Wunderground v.1.15,2013-01-01 15:33:00,
2013-01-01 09:38:00,12.0,8.1,30.47,North,0,1.0,-999.0,84,0.00,,,0.00,Wunderground v.1.15,2013-01-01 15:38:00,
2013-01-01 09:43:00,12.0,8.1,30.47,North,0,1.0,-999.0,84,0.00,,,0.00,Wunderground v.1.15,2013-01-01 15:43:00,
2013-01-01 09:48:00,13.0,9.1,30.47,North,0,2.0,-999.0,84,0.00,,,0.00,Wunderground v.1.15,2013-01-01 15:48:00,
2013-01-01 09:53:00,13.0,9.1,30.47,North,0,2.0,-999.0,84,0.00,,,0.00,Wunderground v.1.15,2013-01-01 15:53:00,
2013-01-01 09:58:00,13.0,9.1,30.47,North,0,2.0,-999.0,84,0.00,,,0.00,Wunderground v.1.15,2013-01-01 15:58:00,
2013-01-01 10:03:00,13.0,9.1,30.47,North,0,2.0,-999.0,84,0.00,,,0.00,Wunderground v.1.15,2013-01-01 16:03:00,
2013-01-01 10:08:00,13.0,9.1,30.47,North,0,2.0,-999.0,84,0.00,,,0.00,Wunderground v.1.15,2013-01-01 16:08:00,
2013-01-01 10:13:00,13.0,9.1,30.47,North,0,2.0,-999.0,84,0.00,,,0.00,Wunderground v.1.15,2013-01-01 16:13:00,
2013-01-01 10:18:00,15.5,12.1,30.48,N/A,-737280,0.0,-999.0,86,0.00,,,0.00,Wunderground v.1.15,2013-01-01 16:18:00,
2013-01-01 10:23:00,15.5,12.1,30.48,N/A,-737280,0.0,-999.0,86,0.00,,,0.00,Wunderground v.1.15,2013-01-01 16:23:00,
2013-01-01 10:28:00,15.5,12.1,30.48,N/A,-737280,0.0,-999.0,86,0.00,,,0.00,Wunderground v.1.15,2013-01-01 16:28:00,
2013-01-01 10:33:00,15.5,12.1,30.48,N/A,-737280,0.0,-999.0,86,0.00,,,0.00,Wunderground v.1.15,2013-01-01 16:33:00,
2013-01-01 10:38:00,15.5,12.1,30.48,N/A,-737280,0.0,-999.0,86,0.00,,,0.00,Wunderground v.1.15,2013-01-01 16:38:00,
2013-01-01 10:43:00,15.5,12.1,30.48,N/A,-737280,0.0,-999.0,86,0.00,,,0.00,Wunderground v.1.15,2013-01-01 16:43:00,
2013-01-01 10:48:00,19.4,15.9,30.49,North,0,0.0,-999.0,86,0.00,,,0.00,Wunderground v.1.15,2013-01-01 16:48:00,
2013-01-01 10:53:00,19.4,15.9,30.49,North,0,0.0,-999.0,86,0.00,,,0.00,Wunderground v.1.15,2013-01-01 16:53:00,
2013-01-01 10:58:00,19.4,15.9,30.49,North,0,0.0,-999.0,86,0.00,,,0.00,Wunderground v.1.15,2013-01-01 16:58:00,
2013-01-01 11:03:00,19.4,15.9,30.49,North,0,0.0,-999.0,86,0.00,,,0.00,Wunderground v.1.15,2013-01-01 17:03:00,
2013-01-01 11:08:00,19.4,15.9,30.49,North,0,0.0,-999.0,86,0.00,,,0.00,Wunderground v.1.15,2013-01-01 17:08:00,
2013-01-01 11:13:00,19.4,15.9,30.49,North,0,0.0,-999.0,86,0.00,,,0.00,Wunderground v.1.15,2013-01-01 17:13:00,
2013-01-01 11:18:00,23.0,19.7,30.48,N/A,-737280,0.0,-999.0,87,0.00,,,0.00,Wunderground v.1.15,2013-01-01 17:18:00,
2013-01-01 11:23:00,23.0,19.7,30.48,N/A,-737280,0.0,-999.0,87,0.00,,,0.00,Wunderground v.1.15,2013-01-01 17:23:00,
2013-01-01 11:28:00,23.0,19.7,30.48,N/A,-737280,0.0,-999.0,87,0.00,,,0.00,Wunderground v.1.15,2013-01-01 17:28:00,
2013-01-01 11:33:00,23.0,19.7,30.48,N/A,-737280,0.0,-999.0,87,0.00,,,0.00,Wunderground v.1.15,2013-01-01 17:33:00,
2013-01-01 11:38:00,23.0,19.7,30.48,N/A,-737280,0.0,-999.0,87,0.00,,,0.00,Wunderground v.1.15,2013-01-01 17:38:00,
2013-01-01 11:43:00,23.0,19.7,30.48,N/A,-737280,0.0,-999.0,87,0.00,,,0.00,Wunderground v.1.15,2013-01-01 17:43:00,
2013-01-01 11:48:00,25.9,22.3,30.46,North,0,0.0,-999.0,86,0.00,,,0.00,Wunderground v.1.15,2013-01-01 17:48:00,
2013-01-01 11:53:00,25.9,22.3,30.46,North,0,0.0,-999.0,86,0.00,,,0.00,Wunderground v.1.15,2013-01-01 17:53:00,
2013-01-01 11:58:00,25.9,22.3,30.46,North,0,0.0,-999.0,86,0.00,,,0.00,Wunderground v.1.15,2013-01-01 17:58:00,
2013-01-01 12:03:00,25.9,22.3,30.46,North,0,0.0,-999.0,86,0.00,,,0.00,Wunderground v.1.15,2013-01-01 18:03:00,
2013-01-01 12:08:00,25.9,22.3,30.46,North,0,0.0,-999.0,86,0.00,,,0.00,Wunderground v.1.15,2013-01-01 18:08:00,
2013-01-01 12:13:00,25.9,22.3,30.46,North,0,0.0,-999.0,86,0.00,,,0.00,Wunderground v.1.15,2013-01-01 18:13:00,
2013-01-01 12:18:00,25.1,21.2,30.45,North,0,2.0,-999.0,85,0.00,,,0.00,Wunderground v.1.15,2013-01-01 18:18:00,
2013-01-01 12:23:00,25.1,21.2,30.45,North,0,2.0,-999.0,85,0.00,,,0.00,Wunderground v.1.15,2013-01-01 18:23:00,
2013-01-01 12:28:00,25.1,21.2,30.45,North,0,2.0,-999.0,85,0.00,,,0.00,Wunderground v.1.15,2013-01-01 18:28:00,
2013-01-01 12:33:00,25.1,21.2,30.45,North,0,2.0,-999.0,85,0.00,,,0.00,Wunderground v.1.15,2013-01-01 18:33:00,
2013-01-01 12:38:00,25.1,21.2,30.45,North,0,2.0,-999.0,85,0.00,,,0.00,Wunderground v.1.15,2013-01-01 18:38:00,
2013-01-01 12:43:00,25.1,21.2,30.45,North,0,2.0,-999.0,85,0.00,,,0.00,Wunderground v.1.15,2013-01-01 18:43:00,
2013-01-01 12:48:00,25.0,20.8,30.43,NNW,338,5.0,-999.0,84,0.00,,,0.00,Wunderground v.1.15,2013-01-01 18:48:00,
2013-01-01 12:53:00,25.0,20.8,30.43,NNW,338,5.0,-999.0,84,0.00,,,0.00,Wunderground v.1.15,2013-01-01 18:53:00,
2013-01-01 12:58:00,25.0,20.8,30.43,NNW,338,5.0,-999.0,84,0.00,,,0.00,Wunderground v.1.15,2013-01-01 18:58:00,
2013-01-01 13:03:00,25.0,20.8,30.43,NNW,338,5.0,-999.0,84,0.00,,,0.00,Wunderground v.1.15,2013-01-01 19:03:00,
2013-01-01 13:08:00,25.0,20.8,30.43,NNW,338,5.0,-999.0,84,0.00,,,0.00,Wunderground v.1.15,2013-01-01 19:08:00,
2013-01-01 13:13:00,25.0,20.8,30.43,NNW,338,5.0,-999.0,84,0.00,,,0.00,Wunderground v.1.15,2013-01-01 19:13:00,
2013-01-01 13:18:00,28.1,20.9,30.42,NNW,338,6.0,-999.0,74,0.00,,,0.00,Wunderground v.1.15,2013-01-01 19:18:00,
2013-01-01 13:23:00,28.1,20.9,30.42,NNW,338,6.0,-999.0,74,0.00,,,0.00,Wunderground v.1.15,2013-01-01 19:23:00,
2013-01-01 13:28:00,28.1,20.9,30.42,NNW,338,6.0,-999.0,74,0.00,,,0.00,Wunderground v.1.15,2013-01-01 19:28:00,
2013-01-01 13:33:00,28.1,20.9,30.42,NNW,338,6.0,-999.0,74,0.00,,,0.00,Wunderground v.1.15,2013-01-01 19:33:00,
2013-01-01 13:38:00,28.1,20.9,30.42,NNW,338,6.0,-999.0,74,0.00,,,0.00,Wunderground v.1.15,2013-01-01 19:38:00,
2013-01-01 13:43:00,28.1,20.9,30.42,NNW,338,6.0,-999.0,74,0.00,,,0.00,Wunderground v.1.15,2013-01-01 19:43:00,
2013-01-01 13:48:00,30.4,20.0,30.40,SSW,203,7.0,-999.0,65,0.00,,,0.00,Wunderground v.1.15,2013-01-01 19:48:00,
2013-01-01 13:53:00,30.4,20.0,30.40,SSW,203,7.0,-999.0,65,0.00,,,0.00,Wunderground v.1.15,2013-01-01 19:53:00,
2013-01-01 13:58:00,30.4,20.0,30.40,SSW,203,7.0,-999.0,65,0.00,,,0.00,Wunderground v.1.15,2013-01-01 19:58:00,
2013-01-01 14:03:00,30.4,20.0,30.40,SSW,203,7.0,-999.0,65,0.00,,,0.00,Wunderground v.1.15,2013-01-01 20:03:00,
2013-01-01 14:08:00,30.4,20.0,30.40,SSW,203,7.0,-999.0,65,0.00,,,0.00,Wunderground v.1.15,2013-01-01 20:08:00,
2013-01-01 14:13:00,30.4,20.0,30.40,SSW,203,7.0,-999.0,65,0.00,,,0.00,Wunderground v.1.15,2013-01-01 20:13:00,
2013-01-01 14:18:00,31.3,19.8,30.40,SSW,203,9.0,-999.0,62,0.00,,,0.00,Wunderground v.1.15,2013-01-01 20:18:00,
2013-01-01 14:23:00,31.3,19.8,30.40,SSW,203,9.0,-999.0,62,0.00,,,0.00,Wunderground v.1.15,2013-01-01 20:23:00,
2013-01-01 14:28:00,31.3,19.8,30.40,SSW,203,9.0,-999.0,62,0.00,,,0.00,Wunderground v.1.15,2013-01-01 20:28:00,
2013-01-01 14:33:00,31.3,19.8,30.40,SSW,203,9.0,-999.0,62,0.00,,,0.00,Wunderground v.1.15,2013-01-01 20:33:00,
2013-01-01 14:38:00,31.3,19.8,30.40,SSW,203,9.0,-999.0,62,0.00,,,0.00,Wunderground v.1.15,2013-01-01 20:38:00,
2013-01-01 14:43:00,31.3,19.8,30.40,SSW,203,9.0,-999.0,62,0.00,,,0.00,Wunderground v.1.15,2013-01-01 20:43:00,
2013-01-01 14:48:00,31.6,19.7,30.39,WSW,248,7.0,-999.0,61,0.00,,,0.00,Wunderground v.1.15,2013-01-01 20:48:00,
2013-01-01 14:53:00,31.6,19.7,30.39,WSW,248,7.0,-999.0,61,0.00,,,0.00,Wunderground v.1.15,2013-01-01 20:53:00,
2013-01-01 14:58:00,31.6,19.7,30.39,WSW,248,7.0,-999.0,61,0.00,,,0.00,Wunderground v.1.15,2013-01-01 20:58:00,
2013-01-01 15:03:00,31.6,19.7,30.39,WSW,248,7.0,-999.0,61,0.00,,,0.00,Wunderground v.1.15,2013-01-01 21:03:00,
2013-01-01 15:08:00,31.6,19.7,30.39,WSW,248,7.0,-999.0,61,0.00,,,0.00,Wunderground v.1.15,2013-01-01 21:08:00,
2013-01-01 15:13:00,31.6,19.7,30.39,WSW,248,7.0,-999.0,61,0.00,,,0.00,Wunderground v.1.15,2013-01-01 21:13:00,
2013-01-01 15:18:00,31.3,18.6,30.38,SSW,203,8.0,-999.0,59,0.00,,,0.00,Wunderground v.1.15,2013-01-01 21:18:00,
2013-01-01 15:23:00,31.3,18.6,30.38,SSW,203,8.0,-999.0,59,0.00,,,0.00,Wunderground v.1.15,2013-01-01 21:23:00,
2013-01-01 15:28:00,31.3,18.6,30.38,SSW,203,8.0,-999.0,59,0.00,,,0.00,Wunderground v.1.15,2013-01-01 21:28:00,
2013-01-01 15:33:00,31.3,18.6,30.38,SSW,203,8.0,-999.0,59,0.00,,,0.00,Wunderground v.1.15,2013-01-01 21:33:00,
2013-01-01 15:38:00,31.3,18.6,30.38,SSW,203,8.0,-999.0,59,0.00,,,0.00,Wunderground v.1.15,2013-01-01 21:38:00,
2013-01-01 15:43:00,31.3,18.6,30.38,SSW,203,8.0,-999.0,59,0.00,,,0.00,Wunderground v.1.15,2013-01-01 21:43:00,
2013-01-01 15:48:00,30.8,18.5,30.38,SSW,203,8.0,-999.0,60,0.00,,,0.00,Wunderground v.1.15,2013-01-01 21:48:00,
2013-01-01 15:53:00,30.8,18.5,30.38,SSW,203,8.0,-999.0,60,0.00,,,0.00,Wunderground v.1.15,2013-01-01 21:53:00,
2013-01-01 15:58:00,30.8,18.5,30.38,SSW,203,8.0,-999.0,60,0.00,,,0.00,Wunderground v.1.15,2013-01-01 21:58:00,
2013-01-01 16:03:00,30.8,18.5,30.38,SSW,203,8.0,-999.0,60,0.00,,,0.00,Wunderground v.1.15,2013-01-01 22:03:00,
2013-01-01 16:08:00,30.8,18.5,30.38,SSW,203,8.0,-999.0,60,0.00,,,0.00,Wunderground v.1.15,2013-01-01 22:08:00,
2013-01-01 16:13:00,30.8,18.5,30.38,SSW,203,8.0,-999.0,60,0.00,,,0.00,Wunderground v.1.15,2013-01-01 22:13:00,
2013-01-01 16:18:00,29.4,17.2,30.38,SW,225,10.0,-999.0,60,0.00,,,0.00,Wunderground v.1.15,2013-01-01 22:18:00,
2013-01-01 16:23:00,29.4,17.2,30.38,SW,225,10.0,-999.0,60,0.00,,,0.00,Wunderground v.1.15,2013-01-01 22:23:00,
2013-01-01 16:28:00,29.4,17.2,30.38,SW,225,10.0,-999.0,60,0.00,,,0.00,Wunderground v.1.15,2013-01-01 22:28:00,
2013-01-01 16:33:00,29.4,17.2,30.38,SW,225,10.0,-999.0,60,0.00,,,0.00,Wunderground v.1.15,2013-01-01 22:33:00,
2013-01-01 16:38:00,29.4,17.2,30.38,SW,225,10.0,-999.0,60,0.00,,,0.00,Wunderground v.1.15,2013-01-01 22:38:00,
2013-01-01 16:43:00,29.4,17.2,30.38,SW,225,10.0,-999.0,60,0.00,,,0.00,Wunderground v.1.15,2013-01-01 22:43:00,
2013-01-01 16:48:00,27.9,16.6,30.39,SW,225,9.0,-999.0,62,0.00,,,0.00,Wunderground v.1.15,2013-01-01 22:48:00,
2013-01-01 16:53:00,27.9,16.6,30.39,SW,225,9.0,-999.0,62,0.00,,,0.00,Wunderground v.1.15,2013-01-01 22:53:00,
2013-01-01 16:58:00,27.9,16.6,30.39,SW,225,9.0,-999.0,62,0.00,,,0.00,Wunderground v.1.15,2013-01-01 22:58:00,
2013-01-01 17:03:00,27.9,16.6,30.39,SW,225,9.0,-999.0,62,0.00,,,0.00,Wunderground v.1.15,2013-01-01 23:03:00,
2013-01-01 17:08:00,27.9,16.6,30.39,SW,225,9.0,-999.0,62,0.00,,,0.00,Wunderground v.1.15,2013-01-01 23:08:00,
2013-01-01 17:13:00,27.9,16.6,30.39,SW,225,9.0,-999.0,62,0.00,,,0.00,Wunderground v.1.15,2013-01-01 23:13:00,
2013-01-01 17:18:00,26.1,15.6,30.38,SW,225,7.0,-999.0,64,0.00,,,0.00,Wunderground v.1.15,2013-01-01 23:18:00,